Time;durP1;ratioP1;P1;durP2;ratioP2;P2;SDS_P1;SDS_P2;PMS_P1;PMS_P2;Temp;Humidity;BMP_temperature;BMP_pressure;BME280_temperature;BME280_humidity;BME280_pressure;Samples;Min_cycle;Max_cycle;Signal;HPM_P1;HPM_P2
2022/06/04 00:00:18;;;;;;;;;17.50;16.50;;;;;22.52;53.45;100994.84;5020033;28;45201;-54
2022/06/04 00:02:45;;;;;;;;;17.00;16.50;;;;;22.57;53.90;101006.88;5019492;28;46064;-54
2022/06/04 00:05:13;;;;;;;;;14.75;14.75;;;;;22.55;53.52;101005.19;5019420;28;45352;-54
2022/06/04 00:07:39;;;;;;;;;17.00;16.00;;;;;22.55;53.56;101005.19;5019478;28;45265;-56
2022/06/04 00:15:40;;;;;;;;;17.50;16.50;;;;;22.55;53.32;100999.91;5019130;28;45360;-56
2022/06/04 00:18:05;;;;;;;;;19.00;18.00;;;;;22.55;53.70;100994.63;5019278;28;45456;-55
2022/06/04 00:20:31;;;;;;;;;19.25;15.75;;;;;22.53;53.69;100996.53;5019362;28;45344;-54
2022/06/04 00:23:04;;;;;;;;;18.50;15.25;;;;;22.54;53.77;100997.38;5019065;28;46078;-54
2022/06/04 00:25:30;;;;;;;;;14.50;13.50;;;;;22.54;53.35;100997.38;5019261;28;45263;-53
2022/06/04 00:27:57;;;;;;;;;16.00;14.50;;;;;22.54;53.46;100998.22;5017884;28;45364;-55
2022/06/04 00:30:23;;;;;;;;;16.00;15.00;;;;;22.53;53.72;100996.53;5019209;28;45481;-53
2022/06/04 00:32:48;;;;;;;;;15.50;15.00;;;;;22.54;53.49;101003.50;5019262;28;46315;-56
2022/06/04 00:35:14;;;;;;;;;16.75;15.25;;;;;22.52;53.66;101000.13;5018974;28;45422;-55
2022/06/04 00:37:40;;;;;;;;;16.75;16.75;;;;;22.52;53.65;101000.13;5019141;28;45420;-54
2022/06/04 00:40:09;;;;;;;;;16.50;16.50;;;;;22.53;53.51;101003.59;5019132;28;45240;-53
2022/06/04 00:42:34;;;;;;;;;16.25;14.50;;;;;22.52;53.60;100999.25;5018455;28;45344;-54
2022/06/04 00:45:21;;;;;;;;;17.25;17.25;;;;;22.52;53.60;100997.47;5018863;28;45213;-53
2022/06/04 00:47:50;;;;;;;;;18.50;16.00;;;;;22.53;53.52;100977.19;5018399;28;45327;-54
2022/06/04 00:50:20;;;;;;;;;14.25;14.25;;;;;22.52;53.58;100973.72;5019367;28;45528;-53
2022/06/04 00:52:47;;;;;;;;;17.50;15.00;;;;;22.51;53.39;100966.72;5018651;28;45407;-53
2022/06/04 00:55:13;;;;;;;;;16.25;16.00;;;;;22.51;53.26;100966.72;5018666;28;45425;-54
2022/06/04 00:57:47;;;;;;;;;16.25;16.25;;;;;22.51;53.25;100957.94;5018812;28;45474;-55
2022/06/04 01:00:28;;;;;;;;;16.00;16.00;;;;;22.52;53.51;100962.28;5018911;28;45600;-55
2022/06/04 01:03:31;;;;;;;;;17.50;17.50;;;;;22.51;53.08;100960.56;5018672;28;46392;-54
2022/06/04 01:06:02;;;;;;;;;19.25;17.25;;;;;22.50;53.48;100959.75;5018569;28;45766;-53
2022/06/04 01:08:46;;;;;;;;;17.00;16.00;;;;;22.50;53.59;100958.88;5018492;28;45375;-53
2022/06/04 01:11:33;;;;;;;;;15.50;15.50;;;;;22.49;53.25;100955.41;5018807;28;45406;-54
2022/06/04 01:14:36;;;;;;;;;17.50;16.00;;;;;22.49;53.21;100954.56;5018354;28;45422;-54
2022/06/04 01:17:43;;;;;;;;;18.25;17.00;;;;;22.49;53.36;100958.03;5009083;28;46024;-55
2022/06/04 01:20:35;;;;;;;;;17.75;16.00;;;;;22.48;53.14;100951.06;5009170;28;45349;-57
2022/06/04 01:23:25;;;;;;;;;15.50;14.25;;;;;22.49;53.21;100946.63;5018685;28;45453;-56
2022/06/04 01:26:27;;;;;;;;;15.00;13.75;;;;;22.49;53.30;100938.72;5018372;28;45425;-54
2022/06/04 01:29:03;;;;;;;;;16.50;15.25;;;;;22.47;53.37;100930.88;5017959;28;45349;-54
2022/06/04 01:31:53;;;;;;;;;15.25;14.75;;;;;22.48;53.17;100929.09;5018199;28;45343;-53
2022/06/04 01:34:26;;;;;;;;;14.50;14.50;;;;;22.47;53.37;100922.94;5018600;28;45256;-53
2022/06/04 01:37:12;;;;;;;;;14.50;14.50;;;;;22.47;53.28;100928.22;5018352;28;46282;-56
2022/06/04 01:42:33;;;;;;;;;16.25;14.50;;;;;22.47;53.30;100919.47;5018077;28;45340;-52
2022/06/04 01:45:01;;;;;;;;;16.25;15.50;;;;;22.46;53.36;100921.25;5018159;28;45644;-53
2022/06/04 01:47:29;;;;;;;;;16.50;15.25;;;;;22.46;52.96;100929.16;5017801;28;46393;-52
2022/06/04 01:49:56;;;;;;;;;16.00;16.00;;;;;22.46;52.89;100923.88;5016488;28;45463;-53
2022/06/04 01:52:30;;;;;;;;;13.75;13.75;;;;;22.48;52.94;100921.16;5018075;28;45332;-57
2022/06/04 01:55:12;;;;;;;;;16.00;14.50;;;;;22.47;53.00;100922.13;5018181;28;45427;-56
2022/06/04 01:57:53;;;;;;;;;17.00;16.00;;;;;22.47;53.20;100922.13;5017649;28;46246;-54
2022/06/04 02:00:27;;;;;;;;;16.00;16.00;;;;;22.46;53.22;100913.31;5017819;28;45182;-53
2022/06/04 02:02:55;;;;;;;;;16.50;15.00;;;;;22.45;53.12;100908.16;5017971;28;45414;-54
2022/06/04 02:05:27;;;;;;;;;14.75;13.50;;;;;22.47;52.97;100916.84;5017918;28;45347;-53
2022/06/04 02:07:55;;;;;;;;;17.50;16.00;;;;;22.45;53.29;100919.53;5017744;28;46216;-54
2022/06/04 02:10:34;;;;;;;;;15.00;15.00;;;;;22.47;52.98;100917.66;5017680;28;45771;-55
2022/06/04 02:13:04;;;;;;;;;18.75;14.50;;;;;22.47;53.38;100917.66;5017538;28;45804;-55
2022/06/04 02:15:37;;;;;;;;;16.00;16.00;;;;;22.47;53.10;100922.13;5016459;28;45418;-56
2022/06/04 02:18:03;;;;;;;;;18.25;15.75;;;;;22.47;52.75;100922.94;5017242;28;45441;-55
2022/06/04 02:20:29;;;;;;;;;12.25;12.25;;;;;22.47;52.97;100922.94;5017155;28;45909;-58
2022/06/04 02:22:55;;;;;;;;;15.00;14.00;;;;;22.47;53.07;100920.31;5017674;28;45311;-54
2022/06/04 02:25:21;;;;;;;;;13.50;11.00;;;;;22.48;52.87;100926.44;5016750;28;45343;-52
2022/06/04 02:27:49;;;;;;;;;14.50;14.50;;;;;22.48;52.90;100922.00;5017189;28;47197;-53
2022/06/04 02:30:15;;;;;;;;;16.50;14.25;;;;;22.48;52.94;100922.00;5017121;28;45403;-53
2022/06/04 02:32:43;;;;;;;;;14.00;14.00;;;;;22.47;52.80;100922.94;5017336;28;45452;-52
2022/06/04 02:35:17;;;;;;;;;13.50;13.50;;;;;22.47;52.93;100922.94;5017485;28;45316;-52
2022/06/04 02:38:13;;;;;;;;;17.25;13.00;;;;;22.47;52.62;100916.84;5016961;28;46235;-50
2022/06/04 02:40:47;;;;;;;;;15.25;13.25;;;;;22.46;52.58;100908.03;5017129;28;45838;-53
2022/06/04 02:43:29;;;;;;;;;16.00;16.00;;;;;22.44;52.59;100909.94;5032479;28;45289;-54
2022/06/04 02:46:13;;;;;;;;;14.25;13.00;;;;;22.46;52.91;100912.50;5017514;28;45443;-56
2022/06/04 02:48:44;;;;;;;;;14.75;14.75;;;;;22.46;52.72;100913.31;5016720;28;46032;-55
2022/06/04 02:51:16;;;;;;;;;17.50;16.00;;;;;22.46;52.56;100917.78;5017043;28;45862;-54
2022/06/04 02:53:41;;;;;;;;;16.75;14.25;;;;;22.45;52.86;100914.25;5017043;28;45244;-56
2022/06/04 02:56:16;;;;;;;;;17.50;15.25;;;;;22.46;52.83;100915.97;5017105;28;45790;-55
2022/06/04 02:58:43;;;;;;;;;13.75;13.75;;;;;22.45;52.71;100905.50;5016784;28;46294;-55
2022/06/04 03:01:10;;;;;;;;;14.75;13.75;;;;;22.46;52.55;100909.84;5016784;28;45808;-56
2022/06/04 03:03:37;;;;;;;;;15.25;15.25;;;;;22.44;52.92;100896.72;5016822;28;45471;-54
2022/06/04 03:06:05;;;;;;;;;17.75;15.50;;;;;22.44;52.52;100893.25;5015672;28;45507;-56
2022/06/04 03:08:33;;;;;;;;;13.75;13.75;;;;;22.45;52.64;100894.94;5016433;28;46376;-54
2022/06/04 03:10:59;;;;;;;;;15.75;15.00;;;;;22.44;52.71;100896.72;5016109;28;45196;-55
2022/06/04 03:13:25;;;;;;;;;13.25;13.25;;;;;22.42;52.47;100890.72;5017095;28;45256;-55
2022/06/04 03:15:51;;;;;;;;;16.75;16.75;;;;;22.44;52.46;100891.44;5016754;28;45166;-52
2022/06/04 03:18:17;;;;;;;;;14.00;12.00;;;;;22.44;52.43;100891.44;5016238;28;46000;-54
2022/06/04 03:20:43;;;;;;;;;14.75;14.75;;;;;22.43;52.83;100886.25;5016098;28;45383;-53
2022/06/04 03:23:09;;;;;;;;;16.00;14.25;;;;;22.39;52.72;100878.50;5016492;28;45345;-52
2022/06/04 03:25:36;;;;;;;;;17.25;15.00;;;;;22.39;52.68;100864.44;5016645;28;45304;-55
2022/06/04 03:28:03;;;;;;;;;16.25;14.25;;;;;22.37;52.84;100861.91;5016207;28;46099;-54
2022/06/04 03:30:29;;;;;;;;;15.75;15.75;;;;;22.38;52.62;100865.41;5016614;28;45778;-51
2022/06/04 03:32:55;;;;;;;;;25.50;20.75;;;;;22.36;52.78;100869.91;5016773;28;45390;-56
2022/06/04 03:35:21;;;;;;;;;28.50;22.00;;;;;22.33;52.74;100873.59;5016478;28;45644;-54
2022/06/04 03:37:46;;;;;;;;;22.75;22.00;;;;;22.30;52.61;100868.50;5014786;28;48541;-52
2022/06/04 03:40:13;;;;;;;;;20.25;19.00;;;;;22.25;53.12;100878.53;5016127;28;45519;-51
2022/06/04 03:42:39;;;;;;;;;23.50;20.50;;;;;22.23;53.57;100883.88;5016273;28;45390;-55
2022/06/04 03:45:06;;;;;;;;;22.50;21.50;;;;;22.16;53.62;100869.38;5016309;28;45640;-53
2022/06/04 03:47:36;;;;;;;;;21.50;21.00;;;;;22.10;54.20;100859.22;5015786;28;45325;-53
2022/06/04 03:50:13;;;;;;;;;23.25;18.75;;;;;22.06;54.05;100862.97;5015323;28;45859;-53
2022/06/04 03:52:38;;;;;;;;;21.50;21.50;;;;;21.99;53.91;100864.31;5016089;28;45423;-53
2022/06/04 03:55:05;;;;;;;;;21.25;19.25;;;;;21.96;53.97;100875.88;5014952;28;45513;-53
2022/06/04 03:57:52;;;;;;;;;21.50;19.25;;;;;21.93;54.40;100898.03;5015831;28;46089;-54
2022/06/04 04:00:32;;;;;;;;;19.50;19.50;;;;;21.92;54.34;100896.31;5002312;28;45273;-56
2022/06/04 04:03:00;;;;;;;;;22.00;18.50;;;;;21.91;54.33;100899.91;4996567;28;45346;-56
2022/06/04 04:05:30;;;;;;;;;18.00;18.00;;;;;21.91;54.38;100905.19;4996730;28;45317;-52
2022/06/04 04:07:56;;;;;;;;;20.25;18.25;;;;;21.88;54.56;100900.06;4995930;28;46092;-54
2022/06/04 04:10:23;;;;;;;;;15.25;14.00;;;;;21.89;54.52;100917.59;4995928;28;45890;-54
2022/06/04 04:12:48;;;;;;;;;18.50;18.25;;;;;21.86;54.76;100912.53;4996032;28;45449;-53
2022/06/04 04:15:15;;;;;;;;;19.00;17.00;;;;;21.88;54.70;100920.34;4996184;28;45664;-54
2022/06/04 04:17:41;;;;;;;;;16.75;15.50;;;;;21.85;54.85;100925.81;4995861;28;46315;-55
2022/06/04 04:20:16;;;;;;;;;18.00;17.25;;;;;21.82;54.79;100937.41;4995633;28;45889;-56
2022/06/04 04:22:42;;;;;;;;;19.25;19.25;;;;;21.80;54.89;100947.19;4997690;28;45384;-55
2022/06/04 04:25:08;;;;;;;;;19.25;16.50;;;;;21.79;54.74;100969.22;4999528;28;45373;-54
2022/06/04 04:27:34;;;;;;;;;11.00;8.75;;;;;21.80;54.70;100978.84;4997862;28;46156;-54
2022/06/04 04:29:59;;;;;;;;;16.75;14.00;;;;;21.81;54.76;100983.19;4999400;28;45187;-55
2022/06/04 04:32:26;;;;;;;;;15.00;15.00;;;;;21.82;54.81;100978.78;4999245;28;45284;-54
2022/06/04 04:34:51;;;;;;;;;16.00;14.50;;;;;21.84;54.74;100976.88;4999322;28;45563;-53
2022/06/04 04:37:17;;;;;;;;;17.50;16.00;;;;;21.84;54.78;100988.28;4998950;28;46018;-54
2022/06/04 04:39:42;;;;;;;;;19.67;16.67;;;;;21.82;54.79;100995.44;4998684;28;52896;-52
2022/06/04 04:42:07;;;;;;;;;16.50;15.50;;;;;21.83;54.76;100991.03;4999162;28;45834;-53
2022/06/04 04:44:33;;;;;;;;;19.00;17.00;;;;;21.83;54.84;100991.88;4999426;28;45893;-55
2022/06/04 04:46:58;;;;;;;;;17.00;17.00;;;;;21.81;54.62;100999.00;4999105;28;46237;-56
2022/06/04 04:49:23;;;;;;;;;18.25;15.50;;;;;21.81;54.74;101009.56;4998813;28;45553;-55
2022/06/04 04:51:49;;;;;;;;;19.00;16.25;;;;;21.80;54.95;101007.88;4998654;28;46361;-56
2022/06/04 04:54:16;;;;;;;;;17.75;16.50;;;;;21.80;54.73;100999.94;4999014;28;45618;-55
2022/06/04 04:56:42;;;;;;;;;18.00;17.25;;;;;21.77;54.85;101000.16;4998612;28;46335;-54
2022/06/04 04:59:08;;;;;;;;;14.50;14.25;;;;;21.77;55.11;101000.16;4997437;28;45758;-54
2022/06/04 05:01:34;;;;;;;;;19.25;17.75;;;;;21.75;55.04;100994.09;4999176;28;45440;-55
2022/06/04 05:03:59;;;;;;;;;20.50;16.75;;;;;21.74;55.14;100992.41;4999207;28;45260;-53
2022/06/04 05:06:25;;;;;;;;;17.50;17.50;;;;;21.72;55.23;100989.00;4998426;28;46085;-55
2022/06/04 05:08:54;;;;;;;;;19.75;16.50;;;;;21.69;55.42;100992.69;5010950;28;45359;-54
2022/06/04 05:11:27;;;;;;;;;19.00;16.75;;;;;21.65;55.66;100982.38;5018338;28;45362;-53
2022/06/04 05:13:53;;;;;;;;;17.75;17.75;;;;;21.67;55.18;100972.56;5018538;28;45403;-52
2022/06/04 05:16:20;;;;;;;;;16.00;14.75;;;;;21.65;55.39;100977.94;5018226;28;45365;-56
2022/06/04 05:18:46;;;;;;;;;18.25;16.25;;;;;21.64;55.45;100988.59;5018278;28;45939;-52
2022/06/04 05:21:22;;;;;;;;;18.50;16.25;;;;;21.66;55.23;100987.56;5008654;28;45355;-54
2022/06/04 05:23:49;;;;;;;;;16.25;15.00;;;;;21.68;55.49;100996.25;5000257;28;45424;-56
2022/06/04 05:26:15;;;;;;;;;18.00;16.00;;;;;21.69;55.39;100981.25;4996274;28;45386;-56
2022/06/04 05:28:40;;;;;;;;;15.50;15.50;;;;;21.71;55.49;100968.84;4997098;28;45471;-52
2022/06/04 05:31:06;;;;;;;;;19.25;19.00;;;;;21.72;55.61;100938.88;4997997;28;45354;-53
2022/06/04 05:33:32;;;;;;;;;19.00;17.00;;;;;21.71;55.33;100945.09;5007050;28;45316;-52
2022/06/04 05:35:57;;;;;;;;;17.50;16.50;;;;;21.69;55.56;100936.41;5008175;28;46851;-55
2022/06/04 05:38:23;;;;;;;;;18.25;16.50;;;;;21.68;55.29;100937.34;5006464;28;45277;-56
2022/06/04 05:40:48;;;;;;;;;17.75;16.50;;;;;21.67;55.46;100928.59;5007392;28;45348;-55
2022/06/04 05:43:14;;;;;;;;;16.00;16.00;;;;;21.65;55.46;100924.38;5007642;28;45559;-52
2022/06/04 05:45:39;;;;;;;;;14.00;14.00;;;;;21.69;55.42;100936.41;5003173;28;46264;-53
2022/06/04 05:48:05;;;;;;;;;14.75;14.75;;;;;21.71;55.44;100945.97;5017993;28;45324;-50
2022/06/04 05:50:30;;;;;;;;;15.25;15.25;;;;;21.73;55.50;100959.88;5017702;28;45488;-51
2022/06/04 05:52:56;;;;;;;;;15.00;15.00;;;;;21.74;55.42;100956.31;5017810;28;45280;-53
2022/06/04 05:55:22;;;;;;;;;16.50;16.50;;;;;21.75;55.54;100962.44;5017646;28;46135;-52
2022/06/04 05:57:48;;;;;;;;;18.75;15.00;;;;;21.78;55.50;100978.06;5008475;28;45329;-46
2022/06/04 06:00:14;;;;;;;;;16.00;16.00;;;;;21.80;55.41;100980.66;4996684;28;45365;-49
2022/06/04 06:02:39;;;;;;;;;13.00;13.00;;;;;21.80;55.61;100992.03;4998118;28;45498;-47
2022/06/04 06:05:05;;;;;;;;;17.00;16.25;;;;;21.82;55.41;101000.72;4997852;28;46701;-47
2022/06/04 06:07:31;;;;;;;;;16.50;16.50;;;;;21.84;55.48;101011.16;4997660;28;45336;-49
2022/06/04 06:09:56;;;;;;;;;14.75;14.25;;;;;21.84;55.42;101030.50;5011210;28;45479;-47
2022/06/04 06:12:23;;;;;;;;;18.50;16.00;;;;;21.86;55.63;101048.88;5017632;28;45350;-55
2022/06/04 06:14:48;;;;;;;;;15.75;14.75;;;;;21.87;55.69;101030.34;5017426;28;46228;-48
2022/06/04 06:17:14;;;;;;;;;16.00;14.25;;;;;21.89;55.61;100991.50;5017344;28;45362;-48
2022/06/04 06:19:39;;;;;;;;;16.50;15.75;;;;;21.89;55.52;101014.41;5017366;28;45297;-49
2022/06/04 06:22:04;;;;;;;;;17.00;16.00;;;;;21.90;55.58;101040.69;4998009;28;45396;-49
2022/06/04 06:24:30;;;;;;;;;15.50;14.25;;;;;21.91;55.56;101058.22;4996143;28;45438;-48
2022/06/04 06:26:57;;;;;;;;;16.75;15.25;;;;;21.92;55.63;101080.22;4997320;28;45327;-46
2022/06/04 06:29:26;;;;;;;;;14.75;12.00;;;;;21.92;55.63;101083.69;4997393;28;45261;-49
2022/06/04 06:31:53;;;;;;;;;18.25;18.25;;;;;21.93;55.34;101087.19;4997478;28;45356;-48
2022/06/04 06:34:19;;;;;;;;;15.75;15.00;;;;;21.93;55.53;101076.63;4997137;28;46660;-49
2022/06/04 06:36:45;;;;;;;;;17.50;17.00;;;;;21.90;55.82;101053.88;4997110;28;45435;-46
2022/06/04 06:39:11;;;;;;;;;20.50;17.00;;;;;21.89;55.16;101060.09;4996796;28;45407;-50
2022/06/04 06:41:37;;;;;;;;;17.00;14.75;;;;;21.86;55.80;101065.56;4997773;28;45364;-49
2022/06/04 06:44:03;;;;;;;;;14.25;13.25;;;;;21.87;55.50;101072.56;4996838;28;46410;-51
2022/06/04 06:46:43;;;;;;;;;14.25;14.25;;;;;21.87;55.78;101072.56;4996488;28;45407;-48
2022/06/04 06:49:15;;;;;;;;;17.00;17.00;;;;;21.86;55.83;101073.50;4997480;28;45446;-48
2022/06/04 06:51:49;;;;;;;;;16.75;16.50;;;;;21.84;55.67;101072.72;4997297;28;45363;-50
2022/06/04 06:54:16;;;;;;;;;14.00;13.50;;;;;21.85;55.59;101069.16;4996893;28;46560;-51
2022/06/04 06:56:43;;;;;;;;;18.75;17.00;;;;;21.86;55.77;101062.94;4996813;28;45513;-54
2022/06/04 06:59:09;;;;;;;;;11.75;11.25;;;;;21.86;55.58;101060.28;4997385;28;45531;-52
2022/06/04 07:01:35;;;;;;;;;17.50;15.25;;;;;21.87;55.87;101054.09;4997123;28;45486;-54
2022/06/04 07:04:02;;;;;;;;;18.25;17.25;;;;;21.87;55.75;101051.44;4996767;28;47029;-53
2022/06/04 07:06:51;;;;;;;;;18.00;16.75;;;;;21.89;55.77;101028.44;4996722;28;45886;-55
2022/06/04 07:09:27;;;;;;;;;17.50;17.50;;;;;21.89;55.91;101023.16;4996910;28;45395;-55
2022/06/04 07:11:53;;;;;;;;;18.00;18.00;;;;;21.90;55.87;101024.03;4996814;28;45543;-53
2022/06/04 07:14:20;;;;;;;;;21.25;19.50;;;;;21.89;55.85;101023.16;4996540;28;46298;-51
2022/06/04 07:16:47;;;;;;;;;18.00;15.50;;;;;21.87;55.96;101017.16;4995767;28;45920;-53
2022/06/04 07:19:14;;;;;;;;;17.50;15.25;;;;;21.88;55.92;101010.91;5012190;28;45371;-53
2022/06/04 07:21:40;;;;;;;;;23.00;18.75;;;;;21.89;56.03;101023.16;4997026;28;45553;-51
2022/06/04 07:24:07;;;;;;;;;19.25;19.25;;;;;21.85;55.98;101026.06;4996764;28;45998;-52
2022/06/04 07:26:33;;;;;;;;;17.25;17.25;;;;;21.87;56.16;101040.03;4995147;28;45380;-54
2022/06/04 07:28:58;;;;;;;;;19.25;19.25;;;;;21.86;55.81;101038.31;4996654;28;45505;-52
2022/06/04 07:31:24;;;;;;;;;20.00;19.00;;;;;21.86;56.34;101049.75;4996873;28;45424;-54
2022/06/04 07:33:52;;;;;;;;;21.75;20.25;;;;;21.86;56.21;101057.66;4996419;28;45376;-53
2022/06/04 07:36:24;;;;;;;;;20.00;16.25;;;;;21.86;56.26;101062.94;4996328;28;45817;-54
2022/06/04 07:38:51;;;;;;;;;21.00;19.75;;;;;21.87;56.21;101059.38;4996449;28;45478;-55
2022/06/04 07:41:22;;;;;;;;;22.75;21.00;;;;;21.88;56.46;101058.41;4996682;28;45499;-56
2022/06/04 07:43:48;;;;;;;;;20.50;18.00;;;;;21.90;56.46;101067.06;4996264;28;46204;-53
2022/06/04 07:46:14;;;;;;;;;21.00;18.50;;;;;21.93;56.73;101082.75;4996109;28;46065;-54
2022/06/04 07:48:40;;;;;;;;;23.50;19.25;;;;;21.97;56.61;101083.41;4994840;28;45451;-51
2022/06/04 07:51:05;;;;;;;;;23.75;19.50;;;;;21.97;56.59;101066.75;4996644;28;45299;-59
2022/06/04 07:53:31;;;;;;;;;24.25;21.50;;;;;22.01;56.78;101062.97;4995500;28;46261;-58
2022/06/04 07:55:56;;;;;;;;;20.50;19.75;;;;;22.01;56.72;101069.13;4991597;28;45539;-59
2022/06/04 07:58:22;;;;;;;;;23.00;22.33;;;;;22.00;56.93;101066.53;4997806;28;47293;-58
2022/06/04 08:00:54;;;;;;;;;21.00;19.75;;;;;22.03;56.94;101063.72;4998846;28;45985;-56
2022/06/04 08:03:19;;;;;;;;;22.00;20.75;;;;;22.04;57.04;101073.34;4998757;28;46098;-57
2022/06/04 08:05:45;;;;;;;;;18.75;17.00;;;;;22.04;57.06;101063.66;4998314;28;45498;-57
2022/06/04 08:08:10;;;;;;;;;20.75;20.25;;;;;22.05;57.08;101049.50;4999224;28;45300;-57
2022/06/04 08:10:35;;;;;;;;;25.50;22.50;;;;;22.06;57.20;101045.09;4999208;28;45409;-56
2022/06/04 08:13:01;;;;;;;;;23.00;22.00;;;;;22.08;57.26;101049.31;4998670;28;45414;-56
2022/06/04 08:15:26;;;;;;;;;21.75;21.25;;;;;22.10;57.24;101051.91;4998726;28;45225;-56
2022/06/04 08:17:52;;;;;;;;;28.50;25.75;;;;;22.11;57.18;101047.44;5013469;28;45428;-56
2022/06/04 08:20:18;;;;;;;;;24.00;21.75;;;;;22.12;57.13;101044.72;4994238;28;45291;-53
2022/06/04 08:22:43;;;;;;;;;25.50;21.00;;;;;22.11;57.46;101048.28;4978959;28;46507;-56
2022/06/04 08:25:09;;;;;;;;;21.75;20.50;;;;;22.13;57.22;101056.13;4989916;28;45693;-57
2022/06/04 08:27:34;;;;;;;;;24.00;22.00;;;;;22.16;56.93;101071.81;4998878;28;45663;-56
2022/06/04 08:30:00;;;;;;;;;20.25;20.25;;;;;22.16;57.32;101067.34;4999020;28;45634;-56
2022/06/04 08:32:25;;;;;;;;;18.50;18.50;;;;;22.18;57.29;101060.22;4998680;28;45498;-57
2022/06/04 08:34:51;;;;;;;;;27.25;25.50;;;;;22.22;56.95;101061.72;4998612;28;45402;-56
2022/06/04 08:37:16;;;;;;;;;24.00;22.50;;;;;22.23;56.70;101066.06;4998720;28;45767;-57
2022/06/04 08:39:41;;;;;;;;;24.25;20.50;;;;;22.27;57.21;101074.63;5014704;28;45511;-56
2022/06/04 08:42:10;;;;;;;;;30.75;22.00;;;;;22.29;57.17;101064.84;4998241;28;55893;-56
2022/06/04 08:44:41;;;;;;;;;25.50;22.50;;;;;22.31;56.74;101070.06;4998626;28;45483;-57
2022/06/04 08:47:07;;;;;;;;;19.75;18.50;;;;;22.32;56.52;101066.47;4998641;28;45393;-56
2022/06/04 08:49:39;;;;;;;;;22.25;21.25;;;;;22.34;56.92;101069.84;4998894;28;45444;-56
2022/06/04 08:52:13;;;;;;;;;23.25;20.00;;;;;22.36;56.59;101076.75;4998318;28;46336;-53
2022/06/04 08:57:33;;;;;;;;;23.00;20.25;;;;;22.41;56.52;101081.78;4998472;28;45309;-50
2022/06/04 08:59:59;;;;;;;;;19.50;19.50;;;;;22.42;56.41;101083.50;4998907;28;45960;-53
2022/06/04 09:02:38;;;;;;;;;26.33;21.00;;;;;22.45;56.37;101082.44;4998226;28;45700;-53
2022/06/04 09:05:18;;;;;;;;;24.00;23.00;;;;;22.47;56.41;101085.88;4998092;28;45467;-55
2022/06/04 09:07:49;;;;;;;;;24.00;21.75;;;;;22.49;56.34;101092.75;4998272;28;45228;-56
2022/06/04 09:10:22;;;;;;;;;20.50;20.50;;;;;22.53;56.27;101090.75;4998879;28;45377;-49
2022/06/04 09:13:27;;;;;;;;;20.50;20.50;;;;;22.59;56.06;101086.91;4996809;28;48294;-54
2022/06/04 09:15:59;;;;;;;;;18.75;17.75;;;;;22.59;55.77;101084.25;4958689;28;45477;-54
2022/06/04 09:18:32;;;;;;;;;22.50;19.50;;;;;22.61;55.88;101082.38;4998453;28;45431;-52
2022/06/04 09:21:00;;;;;;;;;18.00;18.00;;;;;22.63;55.60;101089.25;4998477;28;45438;-54
2022/06/04 09:23:34;;;;;;;;;22.25;19.50;;;;;22.64;55.82;101083.03;4998046;28;46171;-53
2022/06/04 09:26:15;;;;;;;;;21.00;20.50;;;;;22.65;55.83;101090.03;4998241;28;45919;-51
2022/06/04 09:28:58;;;;;;;;;23.25;19.00;;;;;22.68;55.69;101096.91;4998303;28;45382;-53
2022/06/04 09:31:43;;;;;;;;;21.00;19.25;;;;;22.70;55.30;101093.25;4998419;28;45421;-55
2022/06/04 09:34:12;;;;;;;;;21.25;21.25;;;;;22.71;55.35;101083.53;4998110;28;47272;-54
2022/06/04 09:36:40;;;;;;;;;19.00;18.00;;;;;22.73;55.42;101091.34;4998175;28;45264;-53
2022/06/04 09:39:22;;;;;;;;;20.75;20.00;;;;;22.74;55.18;101077.19;4998264;28;45419;-56
2022/06/04 09:41:58;;;;;;;;;18.25;16.75;;;;;22.75;55.30;101077.13;4998597;28;45305;-55
2022/06/04 09:44:25;;;;;;;;;20.75;17.75;;;;;22.76;55.30;101081.47;4998043;28;45643;-53
2022/06/04 09:47:00;;;;;;;;;21.25;19.50;;;;;22.76;54.96;101085.88;4997945;28;45355;-54
2022/06/04 09:49:29;;;;;;;;;16.75;14.75;;;;;22.80;54.78;101082.94;4998229;28;45348;-54
2022/06/04 09:51:55;;;;;;;;;19.00;17.00;;;;;22.82;54.72;101089.00;4998099;28;45320;-54
2022/06/04 09:54:28;;;;;;;;;19.75;17.25;;;;;22.82;54.62;101086.34;4997756;28;46488;-55
2022/06/04 09:57:02;;;;;;;;;17.25;15.75;;;;;22.85;54.70;101085.31;4997705;28;45885;-55
2022/06/04 09:59:30;;;;;;;;;17.00;16.00;;;;;22.86;54.33;101089.66;4997936;28;45456;-55
2022/06/04 10:02:18;;;;;;;;;22.25;19.25;;;;;22.88;54.30;101084.28;4997969;28;45396;-55
2022/06/04 10:04:47;;;;;;;;;19.50;15.50;;;;;22.91;54.24;101090.25;4997550;28;46076;-54
2022/06/04 10:07:29;;;;;;;;;17.75;17.75;;;;;22.92;54.49;101086.66;4997674;28;45924;-51
2022/06/04 10:09:56;;;;;;;;;15.50;15.50;;;;;22.94;54.17;101083.91;4997843;28;45753;-55
2022/06/04 10:13:42;;;;;;;;;17.50;15.00;;;;;22.96;54.15;101095.25;4997977;28;45329;-58
2022/06/04 10:15:26;;;;;;;;;14.75;14.75;;;;;22.96;54.14;101088.16;4997396;28;46373;-57
2022/06/04 10:18:22;;;;;;;;;15.25;14.50;;;;;22.98;53.88;101093.34;4997564;28;45388;-57
2022/06/04 10:21:06;;;;;;;;;16.50;14.75;;;;;23.00;53.94;101086.16;4996692;28;45359;-56
2022/06/04 10:23:42;;;;;;;;;19.00;15.00;;;;;23.05;53.91;101080.59;4997709;28;45396;-58
2022/06/04 10:26:29;;;;;;;;;16.25;15.50;;;;;23.07;53.44;101078.69;4997529;28;46431;-57
2022/06/04 10:29:16;;;;;;;;;14.00;13.50;;;;;23.09;53.64;101072.38;4997281;28;45380;-57
2022/06/04 10:32:05;;;;;;;;;18.00;15.00;;;;;23.09;53.55;101069.75;4997509;28;45479;-57
2022/06/04 10:34:45;;;;;;;;;15.00;15.00;;;;;23.10;53.42;101068.78;4997552;28;45784;-57
2022/06/04 10:37:37;;;;;;;;;15.75;13.75;;;;;23.10;53.52;101060.84;4997361;28;46589;-59
2022/06/04 10:40:30;;;;;;;;;14.25;11.50;;;;;23.11;53.68;101067.84;4997292;28;46001;-58
2022/06/04 10:43:05;;;;;;;;;14.50;14.50;;;;;23.11;53.18;101065.19;4997309;28;45281;-58
2022/06/04 10:45:50;;;;;;;;;15.50;15.50;;;;;23.13;53.43;101067.75;4996172;28;45226;-57
2022/06/04 10:48:25;;;;;;;;;14.25;13.25;;;;;23.13;53.52;101071.22;4997035;28;46718;-57
2022/06/04 10:54:00;;;;;;;;;14.00;14.00;;;;;23.14;53.02;101070.28;4997237;28;45439;-58
2022/06/04 10:56:32;;;;;;;;;19.75;18.25;;;;;23.15;53.07;101058.78;4997328;28;45487;-58
2022/06/04 10:59:19;;;;;;;;;46.25;39.00;;;;;23.15;52.76;101053.47;4996937;28;46275;-59
2022/06/04 11:01:50;;;;;;;;;38.25;35.25;;;;;23.17;52.74;101048.97;4997014;28;45908;-58
2022/06/04 11:04:31;;;;;;;;;30.75;29.25;;;;;23.19;52.63;101050.66;4996853;28;45358;-59
2022/06/04 11:07:02;;;;;;;;;53.25;43.25;;;;;23.21;52.91;101054.06;4997179;28;45349;-59
2022/06/04 11:09:41;;;;;;;;;65.25;51.75;;;;;23.23;53.07;101049.53;4996754;28;46369;-59
2022/06/04 11:12:22;;;;;;;;;59.00;46.75;;;;;23.24;53.03;101048.59;4996876;28;45848;-59
2022/06/04 11:15:03;;;;;;;;;54.25;44.25;;;;;23.23;52.53;101042.47;4997198;28;45309;-59
2022/06/04 11:17:51;;;;;;;;;63.75;51.00;;;;;23.26;52.78;101046.69;4997139;28;45469;-58
2022/06/04 11:20:24;;;;;;;;;33.00;27.50;;;;;23.27;52.78;101043.94;4996610;28;46373;-59
2022/06/04 11:23:28;;;;;;;;;46.50;39.75;;;;;23.28;53.07;101044.81;4997012;28;45816;-59
2022/06/04 11:26:01;;;;;;;;;45.75;38.00;;;;;23.30;52.35;101042.91;4996816;28;45262;-57
2022/06/04 11:28:27;;;;;;;;;42.25;32.75;;;;;23.29;52.86;101031.47;4996858;28;45286;-55
2022/06/04 11:31:31;;;;;;;;;39.50;32.25;;;;;23.32;52.58;101033.06;4996168;28;47193;-56
2022/06/04 11:34:05;;;;;;;;;36.75;32.50;;;;;23.34;52.57;101033.81;4963240;28;45972;-56
2022/06/04 11:36:56;;;;;;;;;28.25;25.25;;;;;23.34;52.81;101033.81;4996694;28;45395;-54
2022/06/04 11:40:00;;;;;;;;;29.75;27.50;;;;;23.37;52.71;101035.44;4966401;28;45533;-54
2022/06/04 11:42:31;;;;;;;;;24.50;23.75;;;;;23.37;52.24;101023.06;4996466;28;46294;-55